Time;durP1;ratioP1;P1;durP2;ratioP2;P2;SDS_P1;SDS_P2;PMS_P1;PMS_P2;Temp;Humidity;BMP_temperature;BMP_pressure;BME280_temperature;BME280_humidity;BME280_pressure;Samples;Min_cycle;Max_cycle;Signal;HPM_P1;HPM_P2
2023/07/18 00:02:35;;;;;;;2.90;1.73;;;24.00;99.90;;;;;;5279374;28;20039;-64
2023/07/18 00:05:12;;;;;;;2.40;1.67;;;23.90;99.90;;;;;;5256964;28;20332;-62
2023/07/18 00:07:46;;;;;;;1.88;1.50;;;23.90;99.90;;;;;;5247286;28;20377;-63
2023/07/18 00:10:30;;;;;;;2.80;1.90;;;23.90;99.90;;;;;;5268009;28;20028;-61
2023/07/18 00:13:02;;;;;;;3.75;1.60;;;24.00;99.90;;;;;;5232886;28;20226;-64
2023/07/18 00:15:37;;;;;;;2.33;2.00;;;23.90;99.90;;;;;;5231193;28;20023;-63
2023/07/18 00:18:11;;;;;;;2.40;1.98;;;23.90;99.90;;;;;;5246551;28;20396;-64
2023/07/18 00:20:45;;;;;;;1.90;1.70;;;23.80;99.90;;;;;;5249461;28;20046;-63
2023/07/18 00:23:21;;;;;;;2.28;1.70;;;23.70;1.00;;;;;;5282629;28;20043;-63
2023/07/18 00:25:52;;;;;;;2.08;1.80;;;23.80;99.90;;;;;;5282116;28;20040;-63
2023/07/18 00:28:23;;;;;;;1.80;1.60;;;23.80;99.90;;;;;;5249474;28;20042;-61
2023/07/18 00:30:55;;;;;;;2.85;1.90;;;23.90;99.90;;;;;;5286112;28;20029;-65
2023/07/18 00:33:29;;;;;;;2.70;1.98;;;23.90;99.90;;;;;;5283501;28;20047;-62
2023/07/18 00:36:02;;;;;;;2.13;1.73;;;24.20;93.20;;;;;;5248752;28;20247;-63
2023/07/18 00:38:34;;;;;;;1.73;1.60;;;24.10;25.70;;;;;;5249152;28;20024;-64
2023/07/18 00:41:08;;;;;;;3.17;1.73;;;24.20;23.40;;;;;;5265741;28;20032;-64
2023/07/18 00:43:41;;;;;;;1.50;1.38;;;24.20;44.20;;;;;;5265766;28;20040;-64
2023/07/18 00:46:19;;;;;;;2.37;1.80;;;24.20;22.20;;;;;;5247570;28;20394;-64
2023/07/18 00:48:50;;;;;;;1.90;1.75;;;24.30;9.40;;;;;;5284344;28;20020;-64
2023/07/18 00:51:24;;;;;;;3.75;2.03;;;24.30;1.00;;;;;;5252785;28;20044;-62
2023/07/18 00:53:59;;;;;;;2.63;2.10;;;24.30;1.00;;;;;;5252766;28;20061;-64
2023/07/18 00:56:34;;;;;;;2.38;1.75;;;24.30;1.00;;;;;;5286216;28;20244;-64
2023/07/18 00:59:06;;;;;;;;;;;24.40;1.00;;;;;;5252466;28;20043;-62
2023/07/18 01:04:23;;;;;;;2.13;1.60;;;24.50;1.00;;;;;;5181089;28;20042;-61
2023/07/18 01:06:59;;;;;;;2.05;1.73;;;24.60;1.00;;;;;;5150725;28;20241;-59
2023/07/18 01:09:31;;;;;;;2.17;1.65;;;24.60;1.00;;;;;;5129767;28;20042;-60
2023/07/18 01:12:04;;;;;;;2.20;1.70;;;24.70;1.00;;;;;;5165872;28;20044;-63
2023/07/18 01:14:36;;;;;;;2.65;2.05;;;24.70;99.90;;;;;;5162407;28;20557;-62
2023/07/18 01:17:12;;;;;;;2.05;1.65;;;24.50;1.00;;;;;;5167951;28;20048;-60
2023/07/18 01:19:43;;;;;;;2.05;1.58;;;24.30;1.00;;;;;;5181335;28;20048;-63
2023/07/18 01:22:14;;;;;;;2.63;1.88;;;23.80;99.90;;;;;;5182886;28;20060;-63
2023/07/18 01:24:52;;;;;;;2.33;2.05;;;23.40;1.00;;;;;;5181193;28;20041;-66
2023/07/18 01:27:31;;;;;;;1.92;1.63;;;23.10;13.90;;;;;;5183015;28;20380;-62
2023/07/18 01:30:05;;;;;;;2.90;2.00;;;22.90;99.90;;;;;;5167206;28;20344;-63
2023/07/18 01:32:37;;;;;;;1.83;1.65;;;23.00;1.00;;;;;;5193333;28;20033;-62
2023/07/18 01:35:10;;;;;;;1.92;1.77;;;23.10;1.00;;;;;;5163261;28;20044;-62
2023/07/18 01:37:44;;;;;;;2.28;1.80;;;23.30;1.00;;;;;;5163554;28;20041;-63
2023/07/18 01:40:23;;;;;;;3.80;2.03;;;23.50;1.00;;;;;;5164245;28;20064;-63
2023/07/18 01:42:56;;;;;;;2.20;2.00;;;23.50;1.00;;;;;;5164586;28;20386;-63
2023/07/18 01:45:37;;;;;;;2.05;1.85;;;23.50;1.00;;;;;;5174623;28;20045;-62
2023/07/18 01:48:10;;;;;;;2.13;1.90;;;23.30;1.00;;;;;;5164652;28;20303;-62
2023/07/18 01:50:43;;;;;;;2.05;1.85;;;23.20;1.00;;;;;;5162158;28;20040;-62
2023/07/18 01:53:15;;;;;;;2.10;2.00;;;23.10;1.00;;;;;;5187731;28;20030;-61
2023/07/18 01:55:47;;;;;;;3.85;2.28;;;23.00;1.00;;;;;;5171419;28;20036;-63
2023/07/18 01:58:18;;;;;;;2.13;1.92;;;23.00;14.00;;;;;;5182189;28;20028;-61
2023/07/18 02:00:49;;;;;;;3.83;2.58;;;23.00;1.00;;;;;;5177407;28;20333;-61
2023/07/18 02:03:20;;;;;;;3.30;2.38;;;21.80;1.00;;;;;;5181461;28;20246;-60
2023/07/18 02:05:52;;;;;;;2.95;2.45;;;21.20;1.00;;;;;;5181049;28;20241;-67
2023/07/18 02:08:23;;;;;;;5.28;2.67;;;20.80;1.00;;;;;;5147122;28;20029;-64
2023/07/18 02:10:58;;;;;;;2.78;2.40;;;20.70;89.70;;;;;;5180886;28;20024;-65
2023/07/18 02:13:29;;;;;;;4.05;2.47;;;20.60;99.90;;;;;;5146313;28;20218;-63
2023/07/18 02:16:01;;;;;;;4.70;2.90;;;20.50;99.90;;;;;;5177483;28;20044;-65
2023/07/18 02:18:32;;;;;;;3.33;2.60;;;20.50;99.90;;;;;;5163696;28;20041;-63
2023/07/18 02:21:03;;;;;;;3.40;2.35;;;20.50;99.90;;;;;;5181711;28;20021;-67
2023/07/18 02:23:35;;;;;;;5.20;2.70;;;20.50;99.90;;;;;;5181223;28;20038;-64
2023/07/18 02:26:06;;;;;;;5.80;2.53;;;20.50;99.90;;;;;;5163010;28;20042;-65
2023/07/18 02:28:38;;;;;;;4.93;3.38;;;20.60;99.90;;;;;;5163323;28;20046;-66
2023/07/18 02:31:12;;;;;;;3.28;2.92;;;20.70;99.90;;;;;;5178929;28;20029;-68
2023/07/18 02:33:44;;;;;;;4.80;3.00;;;20.80;98.30;;;;;;5178995;28;20253;-62
2023/07/18 02:36:15;;;;;;;4.45;2.63;;;21.00;92.90;;;;;;5180844;28;20030;-66
2023/07/18 02:38:51;;;;;;;4.20;2.65;;;21.10;99.90;;;;;;5180451;28;20031;-65
2023/07/18 02:41:23;;;;;;;3.55;2.80;;;21.00;99.90;;;;;;5174203;28;20038;-64
2023/07/18 02:43:54;;;;;;;4.30;3.13;;;20.90;99.90;;;;;;5179118;28;20044;-62
2023/07/18 02:46:30;;;;;;;4.20;2.70;;;20.70;99.90;;;;;;5159497;28;20283;-63
2023/07/18 02:49:05;;;;;;;3.53;2.80;;;20.70;99.90;;;;;;5180316;28;20238;-65
2023/07/18 02:51:36;;;;;;;2.50;2.30;;;20.50;99.90;;;;;;5170532;28;20048;-62
2023/07/18 02:54:10;;;;;;;3.55;3.00;;;20.40;99.90;;;;;;5162763;28;20032;-63
2023/07/18 02:56:44;;;;;;;3.67;2.97;;;20.40;99.90;;;;;;5166198;28;20523;-63
2023/07/18 02:59:23;;;;;;;3.88;2.70;;;20.40;99.90;;;;;;5172206;28;20028;-63
2023/07/18 03:01:58;;;;;;;3.15;2.83;;;20.40;99.90;;;;;;5187682;28;20488;-64
2023/07/18 03:04:30;;;;;;;3.35;2.80;;;20.50;99.90;;;;;;5183214;28;20059;-64
2023/07/18 03:07:03;;;;;;;3.75;2.80;;;20.60;99.90;;;;;;5183312;28;20037;-61
2023/07/18 03:09:39;;;;;;;3.25;2.95;;;20.80;99.90;;;;;;5199377;28;20033;-63
2023/07/18 03:12:11;;;;;;;3.90;3.03;;;21.00;1.00;;;;;;5126647;28;20065;-63
2023/07/18 03:14:42;;;;;;;3.25;2.45;;;21.20;1.00;;;;;;5146677;28;20044;-63
2023/07/18 03:17:18;;;;;;;3.47;2.28;;;21.30;1.00;;;;;;5159916;28;20307;-64
2023/07/18 03:19:51;;;;;;;3.10;2.80;;;21.40;1.00;;;;;;5147642;28;20041;-62
2023/07/18 03:22:25;;;;;;;3.83;2.70;;;21.50;1.00;;;;;;5146142;28;20038;-62
2023/07/18 03:25:07;;;;;;;2.93;2.13;;;21.50;1.00;;;;;;5162715;28;20033;-63
2023/07/18 03:27:39;;;;;;;2.47;2.22;;;21.50;1.00;;;;;;5188283;28;20310;-62
2023/07/18 03:30:12;;;;;;;2.92;2.08;;;21.60;99.90;;;;;;5179818;28;20036;-64
2023/07/18 03:32:43;;;;;;;3.00;2.20;;;21.70;99.90;;;;;;5167407;28;20499;-61
2023/07/18 03:35:18;;;;;;;2.33;2.10;;;21.70;1.00;;;;;;5182562;28;20072;-61
2023/07/18 03:37:49;;;;;;;2.58;2.38;;;21.70;1.00;;;;;;5163138;28;20325;-60
2023/07/18 03:40:21;;;;;;;5.47;2.70;;;21.80;1.00;;;;;;5178768;28;20034;-61
2023/07/18 03:42:52;;;;;;;2.85;2.33;;;21.80;1.00;;;;;;5165702;28;20367;-62
2023/07/18 03:45:24;;;;;;;2.80;2.28;;;21.80;1.00;;;;;;5181649;28;20387;-60
2023/07/18 03:48:00;;;;;;;3.70;2.25;;;21.60;99.90;;;;;;5182745;28;20042;-62
2023/07/18 03:50:34;;;;;;;3.80;2.67;;;21.40;1.00;;;;;;5167425;28;20044;-63
2023/07/18 03:53:05;;;;;;;3.53;2.55;;;21.40;99.90;;;;;;5183765;28;20037;-60
2023/07/18 03:55:43;;;;;;;3.15;2.15;;;21.50;1.00;;;;;;5166261;28;20323;-59
2023/07/18 03:58:19;;;;;;;2.30;2.10;;;21.70;1.00;;;;;;5166735;28;20045;-61
2023/07/18 04:00:50;;;;;;;2.97;2.05;;;21.80;1.00;;;;;;5179904;28;20025;-61
2023/07/18 04:03:22;;;;;;;4.28;2.10;;;22.00;1.00;;;;;;5163908;28;20380;-63
2023/07/18 04:05:55;;;;;;;3.45;2.15;;;22.10;1.00;;;;;;5163231;28;20352;-62
2023/07/18 04:08:28;;;;;;;6.80;2.40;;;22.00;1.00;;;;;;5162962;28;20026;-62
2023/07/18 04:11:00;;;;;;;3.55;2.50;;;21.90;99.90;;;;;;5178810;28;20037;-60
2023/07/18 04:13:34;;;;;;;2.60;1.88;;;21.80;1.00;;;;;;5145177;28;20042;-62
2023/07/18 04:16:07;;;;;;;2.95;2.60;;;21.70;1.00;;;;;;5141886;28;20056;-62
2023/07/18 04:18:41;;;;;;;2.45;2.10;;;21.80;1.00;;;;;;5161463;28;20042;-62
2023/07/18 04:21:14;;;;;;;2.58;2.17;;;21.80;1.00;;;;;;5164448;28;20453;-62
2023/07/18 04:23:47;;;;;;;1.85;1.73;;;22.00;1.00;;;;;;5146500;28;20034;-61
2023/07/18 04:26:19;;;;;;;2.95;2.05;;;22.00;1.00;;;;;;5161646;28;20037;-62
2023/07/18 04:28:51;;;;;;;2.63;2.30;;;22.10;99.90;;;;;;5161494;28;20042;-64
2023/07/18 04:31:23;;;;;;;2.28;1.77;;;22.20;42.10;;;;;;5161972;28;20223;-61
2023/07/18 04:33:55;;;;;;;3.72;1.95;;;22.20;1.00;;;;;;5149035;28;20284;-59
2023/07/18 04:36:29;;;;;;;2.45;1.90;;;22.30;1.00;;;;;;5181249;28;20037;-61
2023/07/18 04:39:00;;;;;;;2.28;1.75;;;22.40;1.00;;;;;;5181479;28;20034;-63
2023/07/18 04:41:31;;;;;;;2.30;2.10;;;22.40;1.00;;;;;;5144447;28;20323;-64
2023/07/18 04:44:06;;;;;;;3.28;2.08;;;22.40;1.00;;;;;;5145228;28;20046;-63
2023/07/18 04:46:41;;;;;;;2.92;1.80;;;22.50;1.00;;;;;;5175525;28;20032;-62
2023/07/18 04:49:15;;;;;;;2.55;1.83;;;22.50;1.00;;;;;;5164701;28;20038;-63
2023/07/18 04:51:48;;;;;;;4.35;2.25;;;22.60;1.00;;;;;;5183431;28;20036;-61
2023/07/18 04:54:19;;;;;;;3.13;2.25;;;22.50;1.00;;;;;;5174471;28;20038;-63
2023/07/18 04:56:53;;;;;;;3.67;1.95;;;22.50;1.00;;;;;;5161848;28;20304;-62
2023/07/18 04:59:27;;;;;;;5.43;2.20;;;22.60;1.00;;;;;;5162173;28;20042;-62
2023/07/18 05:01:59;;;;;;;3.50;2.00;;;22.70;1.00;;;;;;5146544;28;20045;-67
2023/07/18 05:04:36;;;;;;;4.05;2.20;;;22.80;1.00;;;;;;5184970;28;20026;-64
2023/07/18 05:07:08;;;;;;;6.55;2.20;;;22.90;1.00;;;;;;5204236;28;20218;-62
2023/07/18 05:09:42;;;;;;;4.35;2.20;;;22.90;1.00;;;;;;5185477;28;20033;-64
2023/07/18 05:12:20;;;;;;;2.13;1.92;;;22.90;1.00;;;;;;5167236;28;20034;-65
2023/07/18 05:14:54;;;;;;;4.47;2.25;;;23.00;1.00;;;;;;5165307;28;20262;-64
2023/07/18 05:17:25;;;;;;;2.70;1.73;;;23.20;99.90;;;;;;5177385;28;20264;-63
2023/07/18 05:19:56;;;;;;;2.65;1.80;;;23.20;99.90;;;;;;5181316;28;20034;-64
2023/07/18 05:22:29;;;;;;;3.42;2.20;;;23.20;99.90;;;;;;5181124;28;20060;-62
2023/07/18 05:25:00;;;;;;;2.53;1.95;;;23.30;99.90;;;;;;5181677;28;20230;-62
2023/07/18 05:27:34;;;;;;;3.78;1.98;;;23.30;90.20;;;;;;5184739;28;20037;-64
2023/07/18 05:30:12;;;;;;;3.97;2.13;;;23.40;1.00;;;;;;5161878;28;20029;-66
2023/07/18 05:32:44;;;;;;;2.40;1.92;;;23.30;1.00;;;;;;5163318;28;20029;-61
2023/07/18 05:35:21;;;;;;;2.38;1.58;;;23.40;1.00;;;;;;5163561;28;20079;-65
2023/07/18 05:37:57;;;;;;;2.72;1.80;;;23.40;1.00;;;;;;5186602;28;20036;-64
2023/07/18 05:40:28;;;;;;;2.83;1.70;;;23.40;1.00;;;;;;5183018;28;20031;-65
2023/07/18 05:43:00;;;;;;;2.53;1.88;;;23.50;1.00;;;;;;5186882;28;20046;-66
2023/07/18 05:45:31;;;;;;;3.03;1.88;;;23.60;1.00;;;;;;5179127;28;20083;-66
2023/07/18 05:48:06;;;;;;;3.13;2.20;;;23.60;1.00;;;;;;5177370;28;20034;-62
2023/07/18 05:50:42;;;;;;;3.90;2.17;;;23.50;1.00;;;;;;5184559;28;20029;-59
2023/07/18 05:53:13;;;;;;;2.83;1.80;;;23.40;99.90;;;;;;5165624;28;20310;-64
2023/07/18 05:55:48;;;;;;;2.47;2.10;;;23.40;99.90;;;;;;5172900;28;20029;-63
2023/07/18 05:58:24;;;;;;;3.05;1.98;;;23.40;99.90;;;;;;5161078;28;20038;-65
2023/07/18 06:00:56;;;;;;;2.78;2.00;;;23.60;1.00;;;;;;5166878;28;20037;-62
2023/07/18 06:03:28;;;;;;;2.30;1.75;;;23.60;99.90;;;;;;5151335;28;20052;-63
2023/07/18 06:05:59;;;;;;;1.80;1.55;;;23.60;99.90;;;;;;5182692;28;20025;-64
2023/07/18 06:08:34;;;;;;;2.33;1.80;;;23.80;99.90;;;;;;5146861;28;20480;-63
2023/07/18 06:11:05;;;;;;;3.83;1.95;;;23.80;99.90;;;;;;5162605;28;20025;-64
2023/07/18 06:13:36;;;;;;;2.72;1.88;;;23.70;99.90;;;;;;5180755;28;20326;-61
2023/07/18 06:16:08;;;;;;;3.00;1.80;;;23.80;99.90;;;;;;5144086;28;20193;-62
2023/07/18 06:18:41;;;;;;;3.13;2.00;;;23.80;56.50;;;;;;5143521;28;20052;-62
2023/07/18 06:21:12;;;;;;;2.80;2.13;;;23.90;1.00;;;;;;5159389;28;20044;-65
2023/07/18 06:23:44;;;;;;;1.83;1.63;;;24.00;1.00;;;;;;5160131;28;20515;-62
2023/07/18 06:26:15;;;;;;;2.38;1.90;;;24.00;1.00;;;;;;5161685;28;20462;-63
2023/07/18 06:28:48;;;;;;;4.50;2.28;;;24.10;1.00;;;;;;5180308;28;20053;-64
2023/07/18 06:31:19;;;;;;;4.18;1.60;;;24.00;1.00;;;;;;5144127;28;20219;-62
2023/07/18 06:33:54;;;;;;;2.35;1.92;;;24.20;1.00;;;;;;5146963;28;20113;-62
2023/07/18 06:36:26;;;;;;;2.13;1.80;;;24.20;1.00;;;;;;5146830;28;20053;-61
2023/07/18 06:38:57;;;;;;;2.67;1.83;;;24.20;1.00;;;;;;5173520;28;20047;-60
2023/07/18 06:41:29;;;;;;;1.90;1.70;;;24.50;1.00;;;;;;5163473;28;20042;-61
2023/07/18 06:44:04;;;;;;;1.92;1.63;;;24.50;1.00;;;;;;5163001;28;20049;-61
2023/07/18 06:46:41;;;;;;;2.78;1.50;;;24.30;1.00;;;;;;5177636;28;20021;-61
2023/07/18 06:49:13;;;;;;;4.28;1.52;;;24.40;1.00;;;;;;5179823;28;20048;-62
2023/07/18 06:51:44;;;;;;;2.08;1.70;;;24.20;1.00;;;;;;5179205;28;20315;-62
2023/07/18 06:54:15;;;;;;;3.65;1.85;;;24.20;1.00;;;;;;5179624;28;20046;-60
2023/07/18 06:56:47;;;;;;;3.85;1.98;;;24.40;1.00;;;;;;5178883;28;20033;-62
2023/07/18 06:59:18;;;;;;;3.00;1.75;;;24.50;1.00;;;;;;5177524;28;20025;-64
2023/07/18 07:01:50;;;;;;;2.90;1.77;;;24.60;1.00;;;;;;5177732;28;20444;-63
2023/07/18 07:04:21;;;;;;;2.53;1.92;;;24.50;1.00;;;;;;5171149;28;20102;-63
2023/07/18 07:06:53;;;;;;;3.78;1.92;;;24.50;1.00;;;;;;5181261;28;20073;-62
2023/07/18 07:09:25;;;;;;;3.47;1.70;;;24.70;1.00;;;;;;5147143;28;20308;-61
2023/07/18 07:11:57;;;;;;;2.22;1.55;;;24.70;99.90;;;;;;5179297;28;20038;-60
2023/07/18 07:14:28;;;;;;;2.78;1.90;;;24.80;99.90;;;;;;5183010;28;20311;-61
2023/07/18 07:17:00;;;;;;;2.47;1.58;;;24.90;99.90;;;;;;5179804;28;20010;-60
2023/07/18 07:19:34;;;;;;;2.38;1.63;;;25.20;99.90;;;;;;5185002;28;20029;-60
2023/07/18 07:22:14;;;;;;;2.50;1.55;;;25.60;99.90;;;;;;5192516;28;20034;-62
2023/07/18 07:24:47;;;;;;;4.38;1.65;;;25.40;99.90;;;;;;5167340;28;20030;-62
2023/07/18 07:27:19;;;;;;;2.75;1.55;;;25.40;99.90;;;;;;5182670;28;20057;-61
2023/07/18 07:29:51;;;;;;;2.15;1.80;;;25.60;99.90;;;;;;5180255;28;20318;-58
2023/07/18 07:32:25;;;;;;;2.97;1.60;;;25.90;46.10;;;;;;5162668;28;20259;-60
2023/07/18 07:34:57;;;;;;;2.00;1.70;;;25.50;1.00;;;;;;5188052;28;20045;-62
2023/07/18 07:37:28;;;;;;;2.78;1.45;;;25.70;1.00;;;;;;5181792;28;20043;-61
2023/07/18 07:40:01;;;;;;;2.58;1.65;;;25.90;1.00;;;;;;5167424;28;20214;-60
2023/07/18 07:42:35;;;;;;;3.10;1.90;;;26.20;1.00;;;;;;5149822;28;20044;-60
2023/07/18 07:45:07;;;;;;;1.58;1.40;;;26.40;1.00;;;;;;5181296;28;20315;-62
2023/07/18 07:47:39;;;;;;;3.50;1.70;;;26.50;1.00;;;;;;5189246;28;20038;-61
2023/07/18 07:50:14;;;;;;;3.17;1.52;;;26.50;1.00;;;;;;5149664;28;20033;-62
2023/07/18 07:52:51;;;;;;;2.80;1.73;;;26.40;1.00;;;;;;5172068;28;20041;-62
2023/07/18 07:55:23;;;;;;;4.25;1.80;;;26.20;1.00;;;;;;5197493;28;20034;-60
2023/07/18 07:57:54;;;;;;;3.65;1.90;;;26.00;1.00;;;;;;5149406;28;20052;-61
2023/07/18 08:00:26;;;;;;;2.38;1.73;;;26.20;1.00;;;;;;5180712;28;20327;-62
2023/07/18 08:02:57;;;;;;;2.08;1.83;;;26.50;1.00;;;;;;5201062;28;20041;-62
2023/07/18 08:05:29;;;;;;;2.20;1.73;;;26.60;1.00;;;;;;5202948;28;20043;-62
2023/07/18 08:08:10;;;;;;;2.58;1.50;;;26.80;1.00;;;;;;5184061;28;20258;-57
2023/07/18 08:10:42;;;;;;;1.92;1.63;;;27.30;1.00;;;;;;5180594;28;20342;-61
2023/07/18 08:13:19;;;;;;;2.90;1.50;;;27.30;1.00;;;;;;5167568;28;20034;-62
2023/07/18 08:15:51;;;;;;;2.10;1.42;;;27.40;1.00;;;;;;5162217;28;20048;-59
2023/07/18 08:18:25;;;;;;;2.45;1.35;;;26.90;1.00;;;;;;5166434;28;20044;-58
2023/07/18 08:20:56;;;;;;;2.13;1.48;;;27.30;1.00;;;;;;5167132;28;20037;-61
2023/07/18 08:23:30;;;;;;;1.95;1.30;;;27.30;1.00;;;;;;5166285;28;20026;-61
2023/07/18 08:26:05;;;;;;;2.28;1.83;;;27.60;1.00;;;;;;5181893;28;20041;-61
2023/07/18 08:28:36;;;;;;;2.42;1.58;;;28.30;1.00;;;;;;5132660;28;20346;-60
2023/07/18 08:31:10;;;;;;;2.72;1.92;;;28.60;1.00;;;;;;5162772;28;20045;-61
2023/07/18 08:33:44;;;;;;;4.03;1.70;;;28.60;99.90;;;;;;5183403;28;20029;-59
2023/07/18 08:36:18;;;;;;;3.05;2.00;;;28.00;99.90;;;;;;5132987;28;20057;-60
2023/07/18 08:38:49;;;;;;;4.38;2.05;;;27.10;99.90;;;;;;5164984;28;20042;-60
2023/07/18 08:41:24;;;;;;;4.35;1.88;;;27.30;99.90;;;;;;5167555;28;20342;-60
2023/07/18 08:43:58;;;;;;;2.80;1.55;;;28.10;99.90;;;;;;5182834;28;20340;-61
2023/07/18 08:46:30;;;;;;;2.20;1.67;;;28.00;99.90;;;;;;5162382;28;20314;-60
2023/07/18 08:49:04;;;;;;;2.65;1.92;;;27.80;99.90;;;;;;5181128;28;20036;-59
2023/07/18 08:51:38;;;;;;;2.03;1.65;;;28.20;99.90;;;;;;5183406;28;20021;-60
2023/07/18 08:54:12;;;;;;;3.35;1.73;;;28.70;99.90;;;;;;5167956;28;20204;-59
2023/07/18 08:56:44;;;;;;;1.88;1.50;;;29.30;99.90;;;;;;5164584;28;20521;-62
2023/07/18 08:59:18;;;;;;;4.32;1.73;;;29.10;99.90;;;;;;5148169;28;20239;-59
2023/07/18 09:01:54;;;;;;;5.60;1.60;;;29.10;99.90;;;;;;5138540;28;20041;-62
2023/07/18 09:04:25;;;;;;;2.25;1.70;;;29.50;99.90;;;;;;5185714;28;20325;-60
2023/07/18 09:07:01;;;;;;;3.10;1.65;;;30.00;99.90;;;;;;5201589;28;20045;-61
2023/07/18 09:09:32;;;;;;;2.70;1.92;;;30.70;99.90;;;;;;5187678;28;20323;-63
2023/07/18 09:12:09;;;;;;;2.72;1.52;;;30.20;99.90;;;;;;5157280;28;20048;-62
2023/07/18 09:14:41;;;;;;;2.30;1.95;;;29.60;99.90;;;;;;5148991;28;20044;-60
2023/07/18 09:17:13;;;;;;;2.42;1.60;;;29.50;99.90;;;;;;5159750;28;20056;-63
2023/07/18 09:19:48;;;;;;;1.92;1.52;;;29.50;99.90;;;;;;5148878;28;20048;-63
2023/07/18 09:22:19;;;;;;;1.98;1.48;;;30.20;99.90;;;;;;5147510;28;20036;-62
2023/07/18 09:24:55;;;;;;;2.40;1.70;;;30.60;99.90;;;;;;5189380;28;20222;-62
2023/07/18 09:27:26;;;;;;;2.17;1.73;;;31.20;99.90;;;;;;5170992;28;20254;-60
2023/07/18 09:30:00;;;;;;;2.35;1.60;;;30.80;99.90;;;;;;5182660;28;20040;-64
2023/07/18 09:32:32;;;;;;;2.15;1.30;;;30.60;68.40;;;;;;5177724;28;20048;-61
2023/07/18 09:35:06;;;;;;;2.13;1.90;;;30.30;99.90;;;;;;5182979;28;20036;-62
2023/07/18 09:37:44;;;;;;;;;;;30.60;99.90;;;;;;5165591;28;20215;-60
2023/07/18 09:40:18;;;;;;;2.65;1.70;;;31.30;99.90;;;;;;5164396;28;19916;-63
2023/07/18 09:42:57;;;;;;;2.05;1.50;;;31.20;52.80;;;;;;5181436;28;20026;-60
2023/07/18 09:45:29;;;;;;;2.20;1.60;;;31.40;99.90;;;;;;5183110;28;20040;-59
2023/07/18 09:48:03;;;;;;;1.98;1.45;;;30.60;99.90;;;;;;5153167;28;20040;-62
2023/07/18 09:50:41;;;;;;;2.00;1.60;;;31.00;99.90;;;;;;5132157;28;20030;-60
2023/07/18 09:53:13;;;;;;;3.22;1.45;;;30.50;99.90;;;;;;5153138;28;20450;-60
2023/07/18 09:55:45;;;;;;;4.78;2.33;;;31.10;99.90;;;;;;5144404;28;20044;-62
2023/07/18 09:58:21;;;;;;;3.35;1.58;;;31.10;99.90;;;;;;5147831;28;20032;-62
2023/07/18 10:00:56;;;;;;;2.25;1.65;;;31.70;99.90;;;;;;5178024;28;20034;-60
2023/07/18 10:03:31;;;;;;;4.25;2.05;;;31.50;99.90;;;;;;5185370;28;20026;-59
2023/07/18 10:06:10;;;;;;;3.22;1.60;;;32.10;99.90;;;;;;5164618;28;20212;-58
2023/07/18 10:08:44;;;;;;;3.72;2.30;;;32.20;99.90;;;;;;5182215;28;20033;-60
2023/07/18 10:11:18;;;;;;;2.70;1.48;;;31.90;99.90;;;;;;5148699;28;20037;-60
2023/07/18 10:13:55;;;;;;;1.50;1.40;;;31.60;99.90;;;;;;5182477;28;20186;-58
2023/07/18 10:16:26;;;;;;;3.15;1.67;;;32.10;99.90;;;;;;5178629;28;20022;-61
2023/07/18 10:19:15;;;;;;;3.75;1.77;;;32.60;99.90;;;;;;5147733;28;20037;-61
2023/07/18 10:21:56;;;;;;;1.90;1.60;;;33.00;99.90;;;;;;5182018;28;20156;-60
2023/07/18 10:24:31;;;;;;;1.65;1.55;;;32.20;99.90;;;;;;5180403;28;20036;-61
2023/07/18 10:27:10;;;;;;;1.85;1.50;;;32.80;99.90;;;;;;5180216;28;20040;-60
2023/07/18 10:30:03;;;;;;;2.40;1.70;;;33.10;99.90;;;;;;5163975;28;20269;-61
2023/07/18 10:32:37;;;;;;;3.03;1.80;;;33.50;99.90;;;;;;5182287;28;20210;-62
2023/07/18 10:35:13;;;;;;;;;;;33.90;99.90;;;;;;5182329;28;20026;-60
2023/07/18 10:37:50;;;;;;;3.05;2.10;;;34.80;99.90;;;;;;5182182;28;19905;-61
2023/07/18 10:40:42;;;;;;;2.85;2.00;;;35.10;99.90;;;;;;5181924;28;20209;-61
2023/07/18 10:43:20;;;;;;;1.95;1.50;;;35.80;99.90;;;;;;5147299;28;20191;-59
2023/07/18 10:45:56;;;;;;;2.58;1.67;;;36.40;99.90;;;;;;5178947;28;20031;-61
2023/07/18 10:48:28;;;;;;;2.80;1.95;;;34.90;99.90;;;;;;5159688;28;20029;-58
2023/07/18 10:51:00;;;;;;;2.20;1.73;;;35.70;99.90;;;;;;5142854;28;20328;-61
2023/07/18 10:53:32;;;;;;;2.97;2.00;;;36.10;99.90;;;;;;5144846;28;20063;-60
2023/07/18 10:56:05;;;;;;;1.90;1.70;;;37.00;99.90;;;;;;5161962;28;20036;-59
2023/07/18 10:58:37;;;;;;;3.20;2.22;;;38.80;99.90;;;;;;5149260;28;20218;-61
2023/07/18 11:01:09;;;;;;;2.30;1.70;;;38.60;99.90;;;;;;5142461;28;20030;-62
2023/07/18 11:03:45;;;;;;;2.42;1.55;;;37.40;99.90;;;;;;5177606;28;20038;-59
2023/07/18 11:06:16;;;;;;;2.00;1.77;;;38.10;99.90;;;;;;5163655;28;20314;-60
2023/07/18 11:08:47;;;;;;;2.60;2.00;;;39.40;99.90;;;;;;5180429;28;20030;-65
2023/07/18 11:11:21;;;;;;;3.20;2.08;;;39.90;99.90;;;;;;5179081;28;20034;-64
2023/07/18 11:13:55;;;;;;;3.80;2.20;;;40.70;99.90;;;;;;5146706;28;20034;-61
2023/07/18 11:16:29;;;;;;;2.53;1.98;;;41.10;99.90;;;;;;5148829;28;20235;-59
2023/07/18 11:19:01;;;;;;;3.03;2.08;;;40.60;99.90;;;;;;5166552;28;20026;-61
2023/07/18 11:21:36;;;;;;;1.60;1.50;;;40.20;99.90;;;;;;5147079;28;20013;-61
2023/07/18 11:24:13;;;;;;;2.03;1.65;;;40.80;99.90;;;;;;5180865;28;20025;-60
2023/07/18 11:26:44;;;;;;;2.40;1.88;;;40.30;99.90;;;;;;5180372;28;20029;-60
2023/07/18 11:29:25;;;;;;;2.75;2.22;;;40.30;99.90;;;;;;5181318;28;20032;-59
2023/07/18 11:32:02;;;;;;;2.25;2.05;;;40.70;99.90;;;;;;5177265;28;20057;-60
2023/07/18 11:34:36;;;;;;;3.33;1.92;;;41.20;99.90;;;;;;5163270;28;20238;-63
2023/07/18 11:37:08;;;;;;;2.50;2.03;;;41.80;99.90;;;;;;5146918;28;20279;-59
2023/07/18 11:39:49;;;;;;;2.33;2.10;;;42.10;99.90;;;;;;5131717;28;20042;-60
2023/07/18 11:42:20;;;;;;;3.92;1.98;;;42.60;99.90;;;;;;5180579;28;20083;-62
2023/07/18 11:44:55;;;;;;;3.45;2.17;;;41.80;99.90;;;;;;5172561;28;20238;-64
2023/07/18 11:47:27;;;;;;;2.63;2.30;;;42.50;99.90;;;;;;5154053;28;20156;-61
2023/07/18 11:50:10;;;;;;;2.30;2.10;;;41.10;99.90;;;;;;5166429;28;20221;-59
2023/07/18 11:52:46;;;;;;;2.92;1.98;;;40.40;99.90;;;;;;5162862;28;20068;-60
2023/07/18 11:55:19;;;;;;;2.50;2.15;;;41.70;99.90;;;;;;5146593;28;20219;-61
2023/07/18 11:57:58;;;;;;;2.70;2.17;;;42.80;99.90;;;;;;5162496;28;20040;-61
2023/07/18 12:00:35;;;;;;;6.32;2.38;;;43.60;99.90;;;;;;5177297;28;20026;-61
2023/07/18 12:03:10;;;;;;;3.15;2.28;;;44.70;99.90;;;;;;5163620;28;20043;-63
2023/07/18 12:05:41;;;;;;;2.88;2.25;;;44.60;99.90;;;;;;5167195;28;20036;-60
2023/07/18 12:08:23;;;;;;;3.20;2.20;;;44.10;99.90;;;;;;5185047;28;20048;-61
2023/07/18 12:11:00;;;;;;;2.30;2.10;;;44.60;99.90;;;;;;5149975;28;20329;-59
2023/07/18 12:13:31;;;;;;;2.60;2.25;;;44.80;99.90;;;;;;5184675;28;20022;-64
2023/07/18 12:16:03;;;;;;;2.25;2.05;;;45.40;99.90;;;;;;5162927;28;20029;-62
2023/07/18 12:18:38;;;;;;;3.85;2.28;;;44.70;99.90;;;;;;5146482;28;20048;-64
2023/07/18 12:21:13;;;;;;;3.67;2.17;;;42.80;99.90;;;;;;5146275;28;20038;-61
2023/07/18 12:23:44;;;;;;;2.40;2.20;;;42.40;99.90;;;;;;5164462;28;20018;-61
2023/07/18 12:26:16;;;;;;;2.63;2.15;;;43.20;99.90;;;;;;5168167;28;20030;-61
2023/07/18 12:28:48;;;;;;;2.60;2.40;;;44.40;99.90;;;;;;5134940;28;20038;-58
2023/07/18 12:31:24;;;;;;;3.20;1.83;;;45.10;99.90;;;;;;5181249;28;20099;-62
2023/07/18 12:33:55;;;;;;;3.35;1.98;;;44.80;99.90;;;;;;5183648;28;20040;-62
2023/07/18 12:36:26;;;;;;;2.10;1.90;;;44.70;99.90;;;;;;5165855;28;20044;-61
2023/07/18 12:39:00;;;;;;;2.30;2.10;;;44.10;99.90;;;;;;5183235;28;20509;-58
2023/07/18 12:41:31;;;;;;;3.28;2.35;;;43.80;99.90;;;;;;5149110;28;20206;-60
2023/07/18 12:44:05;;;;;;;2.35;2.05;;;43.70;99.90;;;;;;5186128;28;20026;-61
2023/07/18 12:46:37;;;;;;;3.55;2.20;;;44.20;99.90;;;;;;5130906;28;20043;-62
2023/07/18 12:49:14;;;;;;;6.18;2.55;;;44.00;99.90;;;;;;5166511;28;20034;-61
2023/07/18 12:51:48;;;;;;;2.67;2.33;;;41.30;99.90;;;;;;5183728;28;20018;-61
2023/07/18 12:54:22;;;;;;;2.53;2.30;;;40.50;29.90;;;;;;5183870;28;20026;-61
2023/07/18 12:56:54;;;;;;;2.65;2.33;;;41.20;78.60;;;;;;5165609;28;20040;-60
2023/07/18 12:59:25;;;;;;;2.20;1.92;;;41.50;51.90;;;;;;5182956;28;20029;-60
2023/07/18 13:01:57;;;;;;;3.60;1.90;;;42.20;67.70;;;;;;5188795;28;20035;-63
2023/07/18 13:04:33;;;;;;;3.60;2.67;;;43.20;99.90;;;;;;5166860;28;20033;-61
2023/07/18 13:07:09;;;;;;;2.58;2.08;;;44.10;99.90;;;;;;5165849;28;20214;-61
2023/07/18 13:09:42;;;;;;;2.72;1.88;;;45.30;99.90;;;;;;5165486;28;20061;-63
2023/07/18 13:12:14;;;;;;;4.60;2.20;;;44.40;99.90;;;;;;5149326;28;20026;-60
2023/07/18 13:14:47;;;;;;;2.72;1.95;;;44.90;99.90;;;;;;5183479;28;20259;-60
2023/07/18 13:17:21;;;;;;;3.60;2.30;;;43.50;99.90;;;;;;5183673;28;20208;-58
2023/07/18 13:19:53;;;;;;;2.55;2.35;;;44.50;99.90;;;;;;5165479;28;20042;-57
2023/07/18 13:22:26;;;;;;;3.20;2.30;;;42.40;55.00;;;;;;5133420;28;20049;-58
2023/07/18 13:24:57;;;;;;;;;;;41.90;1.00;;;;;;5168491;28;20036;-62
2023/07/18 13:27:31;;;;;;;3.03;2.47;;;42.40;46.50;;;;;;5182336;28;20214;-62
2023/07/18 13:30:06;;;;;;;2.90;2.30;;;43.60;83.20;;;;;;5163714;28;20080;-63